الصفحة الرئيسية
METAR-TAF:

METAR-TAF

مطار :

مطار جناح الدولي

كراتشي, باكستان

دائرة عرض: 24-54N, خط طول: 067-08E, ارتفاع: 21 متر

مراقبة الطقس الحالي

تاريخ ووقت الإصدار 39 دقيقة قبل الساعة 03:25UTC
ريح 5 عقدة من الغرب/الجنوب الغربي
درجة الحرارة 28°درجة مئوية
الرطوبة 74%
ضغط 1010 hPa
الرؤية: 4000 متر
غيوم متفرقة على ارتفاع 2000 قدم
دخان

METAR: OPKC 240325Z 24005KT 4000 FU SCT020 28/23 Q1010 NOSIG

زمن: 09:04 (04:04 UTC)

توقعات

تاريخ ووقت الإصدار 3ساعات و 34 دقيقة قبل الساعة 00:30UTC
التوقعات صالحة من24 الساعة 03 UTC إلى 24 الساعة 12 UTC
ريح 5 عقدة من الجنوب الغربي
الرؤية: 6000 متر
غيوم متفرقة على ارتفاع 2000 قدم
غيوم متفرقة على ارتفاع 10000 قدم

TAF: OPKC 240030Z 2403/2412 23005KT 6000 SCT020 SCT100

أرصاد الطقس والتوقعات من أكثر من 4000 مطار (تقارير الطقس للمطار METAR والتنبؤ بالطقس بالمطارTAF).

المحطات المتاحة هي النقط الصفراء والحمراء على الخريطة.

حرك المؤشر فوق النقطة لمعرفة اسم المحطة.

ثم انقر لمعرفة أرصاد وتوقعات الطقس.

لتغيير الخارطة: اضغط على الأزرار الخضراء مع رمز الصليب الأسود للتكبير. على الزر الأخضر مع شرطة للتصغير، أو على الأسهم الخضراء للخرائط المجاورة.


METAR-TAF: